Time;durP1;ratioP1;P1;durP2;ratioP2;P2;SDS_P1;SDS_P2;PMS_P1;PMS_P2;Temp;Humidity;BMP_temperature;BMP_pressure;BME280_temperature;BME280_humidity;BME280_pressure;Samples;Min_cycle;Max_cycle;Signal;HPM_P1;HPM_P2
2022/05/21 00:00:21;;;;;;;9.52;3.58;;;;;;;7.26;51.12;99247.50;5150186;27;20069;-42
2022/05/21 00:02:48;;;;;;;11.57;4.10;;;;;;;7.25;51.93;99241.47;5139342;27;20063;-41
2022/05/21 00:05:15;;;;;;;10.75;4.13;;;;;;;7.27;51.59;99244.88;5148162;27;20054;-40
2022/05/21 00:07:43;;;;;;;8.70;3.70;;;;;;;7.27;52.15;99233.69;5114350;27;20154;-41
2022/05/21 00:10:12;;;;;;;7.82;3.95;;;;;;;7.28;52.41;99236.22;5115533;27;20046;-42
2022/05/21 00:12:38;;;;;;;6.55;3.13;;;;;;;7.25;52.20;99236.31;5150635;27;20031;-41
2022/05/21 00:15:04;;;;;;;11.90;4.20;;;;;;;7.26;52.01;99240.59;5110079;27;20042;-41
2022/05/21 00:17:30;;;;;;;8.27;3.97;;;;;;;7.24;52.05;99237.19;5150219;27;20039;-41
2022/05/21 00:19:56;;;;;;;12.52;4.03;;;;;;;7.24;51.86;99239.78;5137780;27;20054;-42
2022/05/21 00:22:21;;;;;;;7.50;3.58;;;;;;;7.24;51.79;99234.59;5133444;27;20144;-41
2022/05/21 00:24:47;;;;;;;11.63;4.00;;;;;;;7.23;52.09;99230.31;5152613;27;20030;-41
2022/05/21 00:27:13;;;;;;;14.93;4.00;;;;;;;7.22;51.86;99237.22;5149350;27;20043;-41
2022/05/21 00:29:39;;;;;;;9.10;4.10;;;;;;;7.23;52.38;99236.34;5150789;27;20042;-41
2022/05/21 00:32:05;;;;;;;7.68;3.65;;;;;;;7.22;52.22;99232.06;5125959;27;20475;-41
2022/05/21 00:34:31;;;;;;;7.97;3.83;;;;;;;7.23;52.65;99238.06;5113647;27;20087;-40
2022/05/21 00:36:57;;;;;;;9.52;4.20;;;;;;;7.23;52.50;99238.94;5115074;27;20533;-41
2022/05/21 00:39:23;;;;;;;11.68;4.63;;;;;;;7.10;52.55;99208.31;5131713;28;20035;-41
2022/05/21 00:41:50;;;;;;;8.25;3.70;;;;;;;7.24;52.69;99221.69;5133383;27;20042;-41
2022/05/21 00:44:17;;;;;;;11.32;4.10;;;;;;;7.23;52.58;99227.72;5139390;27;20126;-40
2022/05/21 00:46:44;;;;;;;8.45;4.03;;;;;;;7.26;52.56;99222.50;5141549;27;20518;-41
2022/05/21 00:49:14;;;;;;;13.45;4.38;;;;;;;7.26;52.58;99219.91;5150028;27;20042;-41
2022/05/21 00:51:45;;;;;;;16.17;4.38;;;;;;;7.25;53.11;99223.38;5151735;27;20414;-41
2022/05/21 00:54:12;;;;;;;9.90;4.20;;;;;;;7.24;53.33;99227.69;5144011;27;20046;-42
2022/05/21 00:56:51;;;;;;;9.93;4.63;;;;;;;7.16;53.08;99215.88;5130468;28;20070;-41
2022/05/21 01:02:05;;;;;;;11.65;4.63;;;;;;;7.22;52.59;99218.31;5107705;27;19919;-41
2022/05/21 01:04:31;;;;;;;17.77;5.68;;;;;;;7.13;52.87;99200.44;5105166;27;20272;-41
2022/05/21 01:06:59;;;;;;;10.52;4.53;;;;;;;7.22;52.61;99216.53;5131343;27;20035;-41
2022/05/21 01:09:25;;;;;;;10.18;4.85;;;;;;;7.23;53.12;99215.66;5132021;27;20057;-41
2022/05/21 01:11:50;;;;;;;10.88;4.47;;;;;;;7.27;53.34;99210.41;5148963;27;20474;-41
2022/05/21 01:14:20;;;;;;;12.43;4.63;;;;;;;7.28;53.13;99210.34;5150091;27;20038;-42
2022/05/21 01:16:47;;;;;;;9.98;4.53;;;;;;;7.28;53.07;99210.34;5151777;27;20137;-42
2022/05/21 01:19:13;;;;;;;14.15;5.32;;;;;;;7.29;53.76;99203.44;5131988;27;20100;-41
2022/05/21 01:21:40;;;;;;;13.50;4.78;;;;;;;7.30;53.35;99208.59;5122281;27;20039;-41
2022/05/21 01:24:08;;;;;;;12.98;5.28;;;;;;;7.31;53.72;99219.78;5141738;27;20542;-41
2022/05/21 01:26:34;;;;;;;12.40;5.35;;;;;;;7.32;53.84;99214.56;5133283;27;20076;-42
2022/05/21 01:29:04;;;;;;;12.38;4.88;;;;;;;7.31;53.78;99210.28;5124220;27;20097;-42
2022/05/21 01:31:32;;;;;;;14.10;4.82;;;;;;;7.30;53.44;99212.91;5152037;27;20038;-41
2022/05/21 01:33:59;;;;;;;9.15;4.57;;;;;;;7.21;53.99;99204.53;5150255;27;20047;-41
2022/05/21 01:36:25;;;;;;;11.38;5.25;;;;;;;7.29;54.30;99218.97;5147773;27;20140;-43
2022/05/21 01:38:51;;;;;;;12.55;4.43;;;;;;;7.28;54.14;99209.50;5114189;28;20039;-42
2022/05/21 01:41:17;;;;;;;13.15;4.85;;;;;;;7.29;54.55;99211.19;5139036;27;20898;-42
2022/05/21 01:46:29;;;;;;;11.90;4.47;;;;;;;7.36;54.65;99213.59;5104809;27;20460;-42
2022/05/21 01:48:55;;;;;;;12.40;4.97;;;;;;;7.37;54.52;99214.44;5136350;27;20038;-41
2022/05/21 01:51:20;;;;;;;14.73;5.03;;;;;;;7.37;54.56;99211.84;5133868;27;20498;-42
2022/05/21 01:53:46;;;;;;;14.75;5.68;;;;;;;7.37;55.20;99209.25;5133670;27;20046;-41
2022/05/21 01:56:13;;;;;;;9.98;4.90;;;;;;;7.38;55.23;99205.78;5119942;27;20042;-42
2022/05/21 01:58:40;;;;;;;11.57;5.50;;;;;;;7.39;54.94;99216.06;5126821;27;20087;-41
2022/05/21 02:01:07;;;;;;;9.80;5.13;;;;;;;7.38;54.32;99206.59;5138718;27;20053;-42
2022/05/21 02:03:34;;;;;;;12.10;4.97;;;;;;;7.33;54.55;99202.50;5117509;27;20047;-40
2022/05/21 02:05:59;;;;;;;10.18;5.30;;;;;;;7.40;54.86;99201.41;5134719;27;20039;-41
2022/05/21 02:08:25;;;;;;;11.48;5.43;;;;;;;7.38;54.73;99204.03;5153512;27;20076;-40
2022/05/21 02:10:52;;;;;;;12.63;5.75;;;;;;;7.39;54.40;99200.56;5136389;27;20046;-40
2022/05/21 02:13:30;;;;;;;12.15;5.43;;;;;;;7.38;54.21;99208.38;5136589;27;20050;-43
2022/05/21 02:15:56;;;;;;;10.40;5.57;;;;;;;7.36;54.58;99202.38;5126305;27;20039;-41
2022/05/21 02:18:22;;;;;;;11.68;5.93;;;;;;;7.41;54.12;99203.94;5138651;27;20035;-41
2022/05/21 02:20:49;;;;;;;16.38;7.07;;;;;;;7.44;54.07;99201.25;5139215;27;20043;-41
2022/05/21 02:23:15;;;;;;;16.13;6.88;;;;;;;7.40;53.87;99189.31;5142915;27;20043;-41
2022/05/21 02:25:45;;;;;;;10.82;6.30;;;;;;;7.50;53.90;99198.50;5101585;27;20038;-41
2022/05/21 02:28:12;;;;;;;12.70;6.20;;;;;;;7.54;53.27;99200.09;5130109;27;20043;-41
2022/05/21 02:30:39;;;;;;;16.70;6.97;;;;;;;7.58;53.31;99204.31;5100162;27;20647;-41
2022/05/21 02:33:04;;;;;;;16.73;6.47;;;;;;;7.62;53.16;99195.56;5142410;27;20050;-41
2022/05/21 02:35:30;;;;;;;15.32;6.70;;;;;;;7.69;52.67;99195.38;5153879;27;20054;-42
2022/05/21 02:40:40;;;;;;;15.40;6.65;;;;;;;7.80;52.52;99190.72;5141243;27;20110;-41
2022/05/21 02:43:06;;;;;;;16.05;6.55;;;;;;;7.82;52.14;99188.91;5124844;27;20039;-41
2022/05/21 02:45:32;;;;;;;16.52;6.75;;;;;;;7.78;52.34;99176.97;5135722;27;20065;-41
2022/05/21 02:47:58;;;;;;;14.05;6.00;;;;;;;7.90;51.90;99186.94;5132792;27;20042;-41
2022/05/21 02:50:34;;;;;;;11.02;6.35;;;;;;;7.96;51.66;99189.31;5154750;27;20037;-42
2022/05/21 02:53:01;;;;;;;15.05;6.55;;;;;;;7.91;51.97;99176.53;5132235;27;20042;-41
2022/05/21 02:55:28;;;;;;;14.20;5.82;;;;;;;8.02;51.21;99189.97;5134882;27;20043;-41
2022/05/21 02:57:54;;;;;;;12.98;6.25;;;;;;;8.05;51.51;99189.91;5128627;27;20526;-42
2022/05/21 03:00:25;;;;;;;12.57;5.43;;;;;;;8.08;51.38;99192.38;5148471;27;20402;-41
2022/05/21 03:02:52;;;;;;;12.88;5.78;;;;;;;8.13;51.82;99191.38;5116587;27;20088;-41
2022/05/21 03:05:18;;;;;;;16.33;6.70;;;;;;;8.15;51.58;99185.25;5119689;27;20410;-42
2022/05/21 03:07:46;;;;;;;13.70;5.82;;;;;;;8.20;51.21;99187.69;5141585;27;20065;-42
2022/05/21 03:10:23;;;;;;;16.15;6.10;;;;;;;8.24;51.84;99191.88;5122989;27;20035;-42
2022/05/21 03:12:55;;;;;;;12.40;5.93;;;;;;;8.27;51.45;99184.03;5154105;27;20268;-42
2022/05/21 03:15:24;;;;;;;15.75;5.85;;;;;;;8.31;51.37;99183.06;5146290;27;20418;-41
2022/05/21 03:17:50;;;;;;;;;;;;;;;8.33;51.40;99178.66;5135643;27;20039;-40
2022/05/21 03:20:19;;;;;;;11.98;6.18;;;;;;;8.26;51.12;99171.97;5116562;27;19926;-42
2022/05/21 03:22:45;;;;;;;15.45;6.20;;;;;;;8.34;51.42;99178.59;5134734;27;20034;-41
2022/05/21 03:25:11;;;;;;;12.35;5.80;;;;;;;8.36;51.38;99170.78;5133440;27;20046;-41
2022/05/21 03:27:37;;;;;;;13.82;6.30;;;;;;;8.37;51.66;99180.25;5133350;27;20130;-41
2022/05/21 03:30:09;;;;;;;11.45;6.75;;;;;;;8.37;51.78;99178.50;5144591;27;20447;-41
2022/05/21 03:32:35;;;;;;;11.93;6.15;;;;;;;8.40;51.62;99177.56;5114365;27;20031;-45
2022/05/21 03:35:01;;;;;;;23.88;6.40;;;;;;;8.43;51.82;99172.25;5136472;27;20041;-42
2022/05/21 03:37:26;;;;;;;15.27;6.43;;;;;;;8.48;51.64;99168.63;5143529;27;20042;-41
2022/05/21 03:39:52;;;;;;;11.68;5.88;;;;;;;8.53;51.89;99168.47;5151861;27;20038;-41
2022/05/21 03:42:19;;;;;;;11.63;6.38;;;;;;;8.57;51.60;99170.06;5151160;27;20537;-41
2022/05/21 03:44:45;;;;;;;15.15;6.10;;;;;;;8.60;51.57;99167.34;5120229;27;20454;-42
2022/05/21 03:47:13;;;;;;;17.10;5.82;;;;;;;8.66;51.58;99166.31;5114798;27;20518;-43
2022/05/21 03:49:39;;;;;;;13.98;6.28;;;;;;;8.71;51.80;99172.16;5114620;27;20039;-42
2022/05/21 03:52:06;;;;;;;12.88;7.07;;;;;;;8.75;51.56;99168.56;5135351;27;20117;-42
2022/05/21 03:54:32;;;;;;;15.82;6.05;;;;;;;8.78;51.43;99160.69;5131045;27;20096;-41
2022/05/21 03:56:59;;;;;;;18.73;6.47;;;;;;;8.83;51.04;99166.56;5134285;27;20034;-41
2022/05/21 03:59:26;;;;;;;15.90;7.05;;;;;;;8.88;51.18;99168.09;5123530;27;20470;-42
2022/05/21 04:01:52;;;;;;;12.35;6.53;;;;;;;8.93;50.83;99161.00;5133631;27;20039;-40
2022/05/21 04:04:17;;;;;;;15.30;6.43;;;;;;;9.02;50.91;99152.03;5141341;27;20577;-42
2022/05/21 04:06:43;;;;;;;16.13;5.65;;;;;;;9.09;50.11;99165.63;5135316;27;20575;-41
2022/05/21 04:09:10;;;;;;;16.52;5.47;;;;;;;9.16;49.66;99161.91;5150664;27;20041;-42
2022/05/21 04:11:36;;;;;;;15.05;5.85;;;;;;;9.21;49.21;99153.03;5149091;27;20031;-42
2022/05/21 04:14:03;;;;;;;17.90;6.00;;;;;;;9.27;49.24;99160.59;5137361;27;20066;-41
2022/05/21 04:16:30;;;;;;;12.23;4.95;;;;;;;9.23;48.47;99143.47;5125134;27;20425;-44
2022/05/21 04:18:55;;;;;;;13.23;5.00;;;;;;;9.37;47.45;99152.47;5132551;27;20041;-41
2022/05/21 04:21:21;;;;;;;15.00;4.95;;;;;;;9.40;47.08;99153.19;5151845;27;20042;-42
2022/05/21 04:23:47;;;;;;;14.15;5.00;;;;;;;9.47;47.09;99151.22;5116863;27;20456;-41
2022/05/21 04:26:12;;;;;;;10.52;5.00;;;;;;;9.52;46.55;99152.75;5142203;27;20038;-41
2022/05/21 04:28:39;;;;;;;10.88;4.22;;;;;;;9.59;46.68;99150.72;5112537;27;20057;-41
2022/05/21 04:31:05;;;;;;;11.35;4.65;;;;;;;9.53;46.29;99125.00;5099185;27;20047;-40
2022/05/21 04:33:30;;;;;;;16.63;5.00;;;;;;;9.75;45.96;99150.06;5095214;27;20113;-42
2022/05/21 04:38:41;;;;;;;7.82;4.82;;;;;;;9.92;45.92;99145.97;5133237;27;20034;-41
2022/05/21 04:41:07;;;;;;;10.32;5.20;;;;;;;10.03;46.02;99154.19;5116178;28;20047;-41
2022/05/21 04:43:34;;;;;;;12.57;5.15;;;;;;;10.00;45.67;99129.16;5138209;27;20043;-40
2022/05/21 04:46:00;;;;;;;11.30;5.00;;;;;;;10.14;45.04;99139.00;5138926;27;20038;-41
2022/05/21 04:48:26;;;;;;;7.82;4.00;;;;;;;10.16;43.83;99139.78;5143369;27;20060;-41
2022/05/21 04:50:51;;;;;;;8.88;4.40;;;;;;;10.22;43.92;99142.16;5142084;27;20062;-41
2022/05/21 04:53:18;;;;;;;11.07;4.75;;;;;;;10.24;43.76;99124.75;5140492;27;20570;-41
2022/05/21 04:55:44;;;;;;;9.98;4.20;;;;;;;10.35;42.83;99127.75;5133090;27;20043;-41
2022/05/21 04:58:10;;;;;;;13.02;4.65;;;;;;;10.39;42.87;99123.25;5132239;27;20570;-41
2022/05/21 05:00:35;;;;;;;13.85;4.88;;;;;;;10.46;42.67;99124.69;5133728;27;20047;-41
2022/05/21 05:03:01;;;;;;;10.27;4.68;;;;;;;10.46;42.74;99115.16;5132149;27;20115;-41
2022/05/21 05:05:27;;;;;;;8.60;3.65;;;;;;;10.62;41.15;99123.13;5131928;27;20046;-40
2022/05/21 05:07:53;;;;;;;9.65;4.07;;;;;;;10.68;41.92;99122.03;5137463;27;20042;-40
2022/05/21 05:10:18;;;;;;;7.85;3.92;;;;;;;10.76;41.94;99123.38;5131323;27;20034;-40
2022/05/21 05:12:44;;;;;;;7.50;3.95;;;;;;;10.86;41.62;99124.63;5144995;27;20039;-41
2022/05/21 05:15:10;;;;;;;12.52;4.00;;;;;;;10.91;41.43;99122.69;5150523;27;20042;-42
2022/05/21 05:17:36;;;;;;;10.90;4.35;;;;;;;10.95;40.87;99121.63;5115408;28;20038;-41
2022/05/21 05:20:02;;;;;;;10.10;4.20;;;;;;;11.08;41.11;99115.88;5107776;28;20471;-40
2022/05/21 05:22:28;;;;;;;9.65;4.30;;;;;;;11.21;41.05;99117.00;5139172;27;20034;-41
2022/05/21 05:24:54;;;;;;;10.57;5.47;;;;;;;11.39;40.83;99098.78;5148298;27;20503;-41
2022/05/21 05:27:21;;;;;;;12.43;4.40;;;;;;;11.53;39.89;99103.31;5135288;27;20043;-41
2022/05/21 05:29:46;;;;;;;7.63;3.85;;;;;;;11.67;39.32;99092.28;5123510;27;20050;-42
2022/05/21 05:32:12;;;;;;;7.35;3.78;;;;;;;11.78;39.55;99079.59;5156151;27;20114;-43
2022/05/21 05:34:38;;;;;;;10.27;3.90;;;;;;;11.85;38.72;99071.41;5144648;27;20031;-41
2022/05/21 05:37:04;;;;;;;6.85;3.80;;;;;;;12.11;38.28;99087.50;5136413;27;20070;-41
2022/05/21 05:39:30;;;;;;;7.90;3.78;;;;;;;12.35;37.99;99090.66;5136336;27;20043;-40
2022/05/21 05:41:56;;;;;;;5.38;3.58;;;;;;;12.34;37.08;99084.59;5134940;27;20061;-42
2022/05/21 05:44:22;;;;;;;4.53;2.70;;;;;;;12.38;36.64;99086.13;5118775;27;20426;-42
2022/05/21 05:46:48;;;;;;;7.93;3.72;;;;;;;12.46;36.16;99077.88;5149339;27;20050;-41
2022/05/21 05:49:13;;;;;;;11.50;3.85;;;;;;;12.57;36.10;99073.81;5141077;27;20095;-41
2022/05/21 05:51:39;;;;;;;4.82;3.40;;;;;;;12.73;35.92;99073.84;5153562;27;20125;-42
2022/05/21 05:54:05;;;;;;;6.93;3.20;;;;;;;12.91;35.74;99067.66;5148458;27;20050;-41
2022/05/21 05:56:31;;;;;;;9.05;3.22;;;;;;;13.06;35.72;99069.44;5154302;27;20083;-42
2022/05/21 06:01:43;;;;;;;8.07;3.35;;;;;;;13.08;35.53;99038.88;5153751;27;20045;-41
2022/05/21 06:04:09;;;;;;;12.65;3.42;;;;;;;13.30;34.50;99069.03;5150547;27;20055;-42
2022/05/21 06:06:35;;;;;;;6.68;3.50;;;;;;;13.21;34.63;99056.50;5131353;27;20084;-41
2022/05/21 06:09:01;;;;;;;6.93;3.05;;;;;;;13.36;34.62;99046.06;5117875;27;20496;-41
2022/05/21 06:11:27;;;;;;;6.68;2.80;;;;;;;13.49;34.15;99044.44;5155141;27;20046;-42
2022/05/21 06:13:52;;;;;;;8.02;2.58;;;;;;;13.58;34.02;99030.03;5117374;27;20091;-42
2022/05/21 06:16:18;;;;;;;5.78;2.03;;;;;;;13.68;31.52;99046.84;5119312;27;20043;-41
2022/05/21 06:18:44;;;;;;;2.75;1.80;;;;;;;13.54;31.60;99033.75;5153019;27;20038;-41
2022/05/21 06:21:10;;;;;;;4.55;1.92;;;;;;;13.75;31.70;99034.28;5118051;27;20053;-41
2022/05/21 06:23:37;;;;;;;6.57;2.47;;;;;;;14.08;32.04;99044.56;5135782;27;20046;-42
2022/05/21 06:26:03;;;;;;;4.60;1.67;;;;;;;14.53;31.33;99036.59;5117981;27;20051;-42
2022/05/21 06:28:29;;;;;;;3.42;1.60;;;;;;;15.06;30.36;99025.44;5135724;27;20085;-41
2022/05/21 06:30:55;;;;;;;4.47;2.25;;;;;;;15.68;29.88;99016.19;5116978;27;20046;-41
2022/05/21 06:33:27;;;;;;;3.63;1.90;;;;;;;16.29;28.42;99019.94;5133026;27;20039;-41
2022/05/21 06:36:12;;;;;;;3.33;1.90;;;;;;;17.27;26.86;99024.44;5133917;27;20038;-41
2022/05/21 06:38:40;;;;;;;2.67;1.90;;;;;;;18.50;25.85;99018.66;5134211;27;20129;-42
2022/05/21 06:41:07;;;;;;;3.80;2.17;;;;;;;19.71;25.29;99020.44;5149949;27;20039;-41
2022/05/21 06:43:34;;;;;;;4.07;1.90;;;;;;;20.16;22.60;99023.66;5136014;27;20042;-42
2022/05/21 06:46:00;;;;;;;4.47;2.30;;;;;;;20.56;22.23;99022.00;5139580;27;20038;-42
2022/05/21 06:48:26;;;;;;;4.18;2.17;;;;;;;21.13;21.45;99013.44;5142256;27;20498;-42
2022/05/21 06:50:52;;;;;;;3.47;2.30;;;;;;;22.26;21.09;99019.94;5115769;27;20047;-41
2022/05/21 06:53:18;;;;;;;4.88;1.67;;;;;;;22.91;20.22;98990.88;5099140;27;20047;-41
2022/05/21 06:55:44;;;;;;;2.47;1.70;;;;;;;23.72;18.83;99012.97;5115387;27;20046;-42
2022/05/21 06:58:10;;;;;;;3.05;2.08;;;;;;;24.31;18.67;99002.53;5136401;27;20042;-42
2022/05/21 07:00:36;;;;;;;3.40;1.92;;;;;;;25.37;17.70;99003.00;5152472;27;20395;-41
2022/05/21 07:03:02;;;;;;;3.55;2.10;;;;;;;26.64;17.04;98999.66;5124372;27;20531;-41
2022/05/21 07:08:25;;;;;;;4.82;2.20;;;;;;;29.19;15.63;98982.97;5147033;27;20039;-42
2022/05/21 07:10:52;;;;;;;4.75;2.13;;;;;;;30.27;15.11;98991.66;5154204;27;20042;-42
2022/05/21 07:13:19;;;;;;;6.20;2.40;;;;;;;31.12;14.63;98980.63;5134769;27;20039;-44
2022/05/21 07:15:49;;;;;;;2.80;2.08;;;;;;;31.40;13.27;98993.13;5142392;27;20039;-42
2022/05/21 07:18:18;;;;;;;3.17;2.42;;;;;;;31.74;12.58;98986.78;5142584;27;20047;-42
2022/05/21 07:20:44;;;;;;;4.40;2.40;;;;;;;32.26;12.88;98983.31;5145968;27;20042;-42
2022/05/21 07:23:10;;;;;;;8.75;2.40;;;;;;;32.88;12.07;98982.78;5136035;27;20051;-41
2022/05/21 07:25:36;;;;;;;5.47;2.38;;;;;;;33.22;11.78;98981.63;5098004;27;20082;-43
2022/05/21 07:28:03;;;;;;;3.70;2.42;;;;;;;33.54;11.66;98974.41;5121838;27;20122;-41
2022/05/21 07:30:29;;;;;;;6.03;2.67;;;;;;;33.75;11.51;98975.94;5153751;27;20027;-43
2022/05/21 07:32:56;;;;;;;6.38;2.60;;;;;;;33.78;11.67;98962.00;5141889;27;20501;-41
2022/05/21 07:35:24;;;;;;;5.80;2.65;;;;;;;34.11;11.25;98953.66;5149313;27;20529;-42
2022/05/21 07:37:50;;;;;;;7.75;2.83;;;;;;;34.54;11.13;98959.88;5152744;27;20123;-42
2022/05/21 07:40:17;;;;;;;5.53;2.55;;;;;;;34.08;11.19;98965.69;5153472;27;20034;-40
2022/05/21 07:42:43;;;;;;;5.20;3.20;;;;;;;32.73;12.17;98960.66;5117760;27;20524;-43
2022/05/21 07:45:11;;;;;;;7.43;2.75;;;;;;;32.76;12.12;98958.38;5142673;27;20035;-41
2022/05/21 07:47:37;;;;;;;4.10;2.42;;;;;;;33.88;11.17;98965.88;5133288;27;20042;-42
2022/05/21 07:50:04;;;;;;;6.78;4.47;;;;;;;34.57;10.52;98954.03;5150027;27;20066;-41
2022/05/21 07:52:30;;;;;;;9.15;3.00;;;;;;;35.23;10.41;98954.06;5152938;27;20490;-40
2022/05/21 07:54:56;;;;;;;6.03;3.30;;;;;;;35.85;10.00;98954.66;5152126;27;20533;-44
2022/05/21 07:57:22;;;;;;;10.23;3.55;;;;;;;36.07;9.89;98953.00;5152918;27;20034;-43
2022/05/21 07:59:48;;;;;;;5.95;3.33;;;;;;;36.21;9.61;98950.09;5135585;27;20518;-43
2022/05/21 08:02:16;;;;;;;6.45;3.10;;;;;;;36.50;9.45;98933.69;5134413;27;20143;-43
2022/05/21 08:04:42;;;;;;;5.18;2.75;;;;;;;36.87;9.55;98942.34;5150219;27;20039;-41
2022/05/21 08:07:08;;;;;;;4.07;3.00;;;;;;;36.79;9.37;98940.03;5150994;27;20034;-42
2022/05/21 08:09:34;;;;;;;4.90;2.53;;;;;;;36.90;9.30;98930.22;5149690;27;20042;-43
2022/05/21 08:12:01;;;;;;;7.93;3.15;;;;;;;36.97;9.30;98928.19;5150845;27;20058;-42
2022/05/21 08:14:27;;;;;;;6.13;3.38;;;;;;;37.37;9.60;98927.34;5151854;27;20037;-41
2022/05/21 08:16:53;;;;;;;6.55;2.90;;;;;;;37.84;8.92;98927.91;5143416;27;20038;-42
2022/05/21 08:19:22;;;;;;;8.38;3.15;;;;;;;38.04;8.53;98933.66;5122492;27;20073;-42
2022/05/21 08:21:48;;;;;;;6.55;3.42;;;;;;;36.76;8.82;98923.41;5147575;27;20080;-41
2022/05/21 08:27:02;;;;;;;6.50;3.25;;;;;;;35.75;9.52;98910.28;5146847;27;20093;-42
2022/05/21 08:29:34;;;;;;;6.93;2.85;;;;;;;36.40;9.42;98894.75;5121914;27;20070;-41
2022/05/21 08:32:02;;;;;;;14.82;3.35;;;;;;;37.02;9.33;98897.63;5123308;27;20035;-43
2022/05/21 08:34:28;;;;;;;7.45;3.60;;;;;;;37.16;9.10;98889.00;5131989;27;20038;-43
2022/05/21 08:36:54;;;;;;;10.48;2.97;;;;;;;37.58;8.62;98899.53;5120833;27;20038;-42
2022/05/21 08:39:21;;;;;;;10.70;3.58;;;;;;;37.96;8.76;98896.88;5129758;27;20421;-42
2022/05/21 08:41:57;;;;;;;6.15;3.10;;;;;;;38.26;8.84;98896.53;5146418;27;20038;-42
2022/05/21 08:44:39;;;;;;;7.40;3.33;;;;;;;38.52;8.51;98897.72;5143619;27;20030;-43
2022/05/21 08:47:27;;;;;;;5.80;3.15;;;;;;;37.59;8.27;98893.00;5118667;27;20043;-41
2022/05/21 08:49:58;;;;;;;4.53;2.85;;;;;;;36.76;9.35;98889.03;5140456;27;20039;-44
2022/05/21 08:52:27;;;;;;;6.38;3.30;;;;;;;37.43;8.91;98894.63;5141975;27;20031;-43
2022/05/21 08:54:55;;;;;;;7.78;3.60;;;;;;;37.22;8.57;98871.75;5142714;27;20043;-42
2022/05/21 08:57:57;;;;;;;13.98;3.22;;;;;;;37.60;8.58;98867.53;5124032;27;20038;-42
2022/05/21 09:00:33;;;;;;;9.60;3.70;;;;;;;38.09;8.40;98861.25;5142524;27;20559;-42
2022/05/21 09:03:00;;;;;;;6.55;3.42;;;;;;;38.17;8.37;98866.25;5126830;27;20520;-41
2022/05/21 09:05:26;;;;;;;6.80;3.40;;;;;;;38.34;8.21;98855.34;5137569;27;20053;-42
2022/05/21 09:08:26;;;;;;;7.85;3.35;;;;;;;38.64;8.08;98857.63;5153400;27;20370;-43
2022/05/21 09:11:04;;;;;;;5.75;3.20;;;;;;;38.00;8.03;98851.88;5124740;27;20091;-42
2022/05/21 09:13:46;;;;;;;9.30;3.97;;;;;;;38.12;8.17;98863.47;5123672;27;20433;-42
2022/05/21 09:18:59;;;;;;;5.77;3.10;;;;;;;37.32;8.68;98855.66;5152260;27;20050;-42
2022/05/21 09:21:26;;;;;;;6.13;3.35;;;;;;;37.65;8.70;98844.03;5156079;27;20039;-41
2022/05/21 09:23:54;;;;;;;7.28;3.05;;;;;;;38.15;8.24;98854.00;5131048;27;20035;-43
2022/05/21 09:26:22;;;;;;;4.07;3.13;;;;;;;38.29;7.76;98849.84;5150913;27;20130;-41
2022/05/21 09:28:48;;;;;;;5.45;3.22;;;;;;;38.65;7.74;98848.41;5155512;27;20043;-44
2022/05/21 09:31:23;;;;;;;6.88;2.97;;;;;;;38.78;7.13;98842.59;5118049;27;20037;-44
2022/05/21 09:33:49;;;;;;;4.80;3.00;;;;;;;38.70;7.60;98824.00;5144488;27;20054;-42
2022/05/21 09:36:21;;;;;;;6.43;3.20;;;;;;;38.98;7.67;98834.66;5116644;27;20091;-42
2022/05/21 09:38:54;;;;;;;5.05;2.90;;;;;;;37.82;7.38;98829.63;5117906;27;20057;-41
2022/05/21 09:41:32;;;;;;;4.43;3.05;;;;;;;38.18;7.98;98815.47;5133953;27;20143;-43
2022/05/21 09:46:47;;;;;;;9.80;3.50;;;;;;;38.65;7.84;98804.91;5121917;27;20510;-43
2022/05/21 09:49:24;;;;;;;5.18;3.40;;;;;;;39.04;7.96;98796.66;5116280;27;20096;-41
2022/05/21 09:51:57;;;;;;;4.78;3.58;;;;;;;39.21;7.54;98803.56;5137393;27;20052;-41
2022/05/21 09:54:32;;;;;;;6.28;2.90;;;;;;;38.59;7.43;98803.22;5153339;27;20043;-42
2022/05/21 09:56:59;;;;;;;9.75;3.22;;;;;;;38.26;7.36;98808.78;5138564;27;20035;-42
2022/05/21 09:59:27;;;;;;;4.93;3.15;;;;;;;38.41;7.62;98801.66;5118397;27;20035;-40
2022/05/21 10:01:58;;;;;;;5.78;3.15;;;;;;;38.99;7.56;98790.06;5138017;27;20560;-41
2022/05/21 10:04:53;;;;;;;5.05;3.10;;;;;;;39.33;7.29;98793.38;5135160;27;20072;-41
2022/05/21 10:11:00;;;;;;;5.05;3.60;;;;;;;39.76;6.97;98780.59;5154912;27;20126;-42
2022/05/21 10:13:32;;;;;;;6.43;3.53;;;;;;;39.80;6.95;98781.72;5149492;27;20039;-41
2022/05/21 10:16:10;;;;;;;6.97;3.50;;;;;;;39.85;6.91;98781.75;5146751;27;20066;-41
2022/05/21 10:19:06;;;;;;;4.57;3.33;;;;;;;39.80;7.13;98771.66;5132838;27;20478;-43
2022/05/21 10:21:47;;;;;;;5.38;2.97;;;;;;;39.65;7.04;98755.22;5151829;27;20038;-40
2022/05/21 10:24:38;;;;;;;7.80;3.90;;;;;;;39.71;7.04;98756.06;5137517;27;20054;-43
2022/05/21 10:27:24;;;;;;;13.07;3.83;;;;;;;40.04;7.56;98752.97;5137497;27;20125;-41
2022/05/21 10:30:03;;;;;;;10.33;3.90;;;;;;;40.01;7.84;98750.81;5114374;27;20501;-42
2022/05/21 10:33:01;;;;;;;4.97;4.00;;;;;;;40.12;7.35;98755.22;5135163;27;20088;-41
2022/05/21 10:35:38;;;;;;;6.70;3.53;;;;;;;40.14;7.24;98752.22;5127491;27;20043;-41
2022/05/21 10:38:25;;;;;;;7.90;3.28;;;;;;;40.06;7.04;98739.09;5132624;27;20133;-41
2022/05/21 10:40:55;;;;;;;6.32;3.60;;;;;;;40.08;7.57;98734.22;5118277;27;20561;-41
2022/05/21 10:43:23;;;;;;;7.97;3.60;;;;;;;40.05;7.47;98740.19;5125336;27;20034;-41
2022/05/21 10:45:59;;;;;;;10.00;4.30;;;;;;;39.80;7.88;98733.56;5144779;27;20089;-42
2022/05/21 10:48:33;;;;;;;9.48;3.42;;;;;;;40.09;7.31;98747.59;5154490;27;20034;-42
2022/05/21 10:51:10;;;;;;;5.60;3.70;;;;;;;40.34;7.18;98741.41;5135427;27;20041;-41
2022/05/21 10:53:51;;;;;;;9.43;4.00;;;;;;;40.40;7.07;98737.63;5149296;27;20039;-41
2022/05/21 10:56:41;;;;;;;8.52;3.97;;;;;;;40.54;7.08;98733.28;5133316;27;20518;-41
2022/05/21 10:59:25;;;;;;;8.35;3.90;;;;;;;40.51;7.35;98727.56;5129665;27;20084;-42
2022/05/21 11:02:23;;;;;;;4.97;3.60;;;;;;;39.93;6.97;98737.72;5153633;27;20115;-42
2022/05/21 11:05:22;;;;;;;8.52;3.30;;;;;;;38.95;7.33;98734.56;5127034;27;20112;-41
2022/05/21 11:08:00;;;;;;;3.97;3.22;;;;;;;38.55;7.31;98718.69;5150277;27;20043;-42
2022/05/21 11:10:32;;;;;;;8.20;3.20;;;;;;;38.41;7.25;98705.75;5100570;27;20130;-41
2022/05/21 11:13:14;;;;;;;7.47;3.33;;;;;;;38.13;7.53;98682.38;5133468;27;20042;-41
2022/05/21 11:15:47;;;;;;;3.75;3.28;;;;;;;38.67;7.71;98713.09;5137191;27;20122;-43
2022/05/21 11:18:35;;;;;;;8.10;3.45;;;;;;;37.96;7.88;98704.13;5119950;27;20178;-42
2022/05/21 11:21:04;;;;;;;7.30;2.95;;;;;;;36.66;8.25;98696.50;5132114;27;20030;-40
2022/05/21 11:23:58;;;;;;;8.38;3.35;;;;;;;36.47;8.11;98708.59;5151984;27;20083;-41
2022/05/21 11:26:36;;;;;;;5.18;2.80;;;;;;;36.48;8.36;98688.56;5118470;27;20055;-40
2022/05/21 11:29:19;;;;;;;8.27;2.75;;;;;;;36.85;8.34;98689.75;5122741;27;20043;-41
2022/05/21 11:37:26;;;;;;;3.35;2.72;;;;;;;37.38;7.90;98679.47;5120262;27;21570;-41
2022/05/21 11:39:55;;;;;;;6.53;2.80;;;;;;;37.03;8.10;98666.19;5123842;27;20046;-41
2022/05/21 11:42:27;;;;;;;7.97;3.17;;;;;;;37.67;8.56;98665.53;5138997;27;20831;-40
2022/05/21 11:44:56;;;;;;;8.00;3.28;;;;;;;37.74;7.95;98668.03;5121408;27;20121;-42
2022/05/21 11:47:22;;;;;;;6.78;2.90;;;;;;;38.02;8.06;98650.75;5121490;27;20043;-42
2022/05/21 11:50:00;;;;;;;4.72;2.95;;;;;;;37.63;7.41;98647.31;5141660;27;20977;-41
2022/05/21 11:52:26;;;;;;;5.20;3.00;;;;;;;36.97;7.66;98650.91;5137297;27;20035;-41
2022/05/21 11:54:53;;;;;;;4.95;2.80;;;;;;;37.56;7.91;98644.78;5118100;27;20046;-41
2022/05/21 11:57:41;;;;;;;8.55;3.00;;;;;;;38.21;7.71;98645.81;5139950;27;20041;-41
2022/05/21 12:00:24;;;;;;;5.45;3.33;;;;;;;38.17;7.49;98650.91;5141182;27;20035;-42
2022/05/21 12:02:58;;;;;;;5.68;3.10;;;;;;;37.93;7.91;98644.13;5122543;27;20039;-40
2022/05/21 12:05:34;;;;;;;4.68;3.15;;;;;;;36.81;7.81;98645.25;5122251;27;20047;-41
2022/05/21 12:08:21;;;;;;;4.30;2.90;;;;;;;36.14;8.06;98638.06;5119873;27;20077;-42
2022/05/21 12:10:55;;;;;;;;;;;;;;;35.71;8.37;98635.88;5128437;27;20125;-43
2022/05/21 12:13:58;;;;;;;7.57;4.10;;;;;;;35.13;8.89;98628.66;5150227;27;20302;-41
2022/05/21 12:16:24;;;;;;;6.22;2.75;;;;;;;34.77;8.91;98624.31;5130209;27;20219;-42
2022/05/21 12:18:51;;;;;;;4.13;2.70;;;;;;;34.84;8.87;98625.03;5148490;27;20151;-41
2022/05/21 12:21:40;;;;;;;7.15;3.75;;;;;;;35.53;8.76;98612.53;5142310;27;20050;-43